createdAt,value
2022-12-22T00:02:45.249Z,4.53
2022-12-22T00:05:35.012Z,4.51
2022-12-22T00:08:20.420Z,4.51
2022-12-22T00:11:06.455Z,4.45
2022-12-22T00:13:52.767Z,4.41
2022-12-22T00:16:38.065Z,4.41
2022-12-22T00:19:31.170Z,4.38
2022-12-22T00:22:37.497Z,4.35
2022-12-22T00:25:23.208Z,4.39
2022-12-22T00:28:08.544Z,4.37
2022-12-22T00:30:55.030Z,4.31
2022-12-22T00:33:40.847Z,4.29
2022-12-22T00:36:28.824Z,4.27
2022-12-22T00:39:13.748Z,4.24
2022-12-22T00:41:58.717Z,4.25
2022-12-22T00:44:43.640Z,4.24
2022-12-22T00:47:44.042Z,4.20
2022-12-22T00:50:29.724Z,4.21
2022-12-22T00:53:15.710Z,4.19
2022-12-22T00:56:01.191Z,4.18
2022-12-22T00:58:46.226Z,4.21
2022-12-22T01:01:32.063Z,4.19
2022-12-22T01:04:17.274Z,4.17
2022-12-22T01:07:02.710Z,4.19
2022-12-22T01:09:48.386Z,4.17
2022-12-22T01:12:39.060Z,4.17
2022-12-22T01:15:36.771Z,4.17
2022-12-22T01:18:23.046Z,4.16
2022-12-22T01:21:09.023Z,4.12
2022-12-22T01:23:54.561Z,4.14
2022-12-22T01:26:39.883Z,4.13
2022-12-22T01:29:25.410Z,4.12
2022-12-22T01:32:10.668Z,4.12
2022-12-22T01:34:56.491Z,4.10
2022-12-22T01:37:41.680Z,4.08
2022-12-22T01:40:52.904Z,4.07
2022-12-22T01:43:42.845Z,4.04
2022-12-22T01:46:49.002Z,4.05
2022-12-22T01:49:42.402Z,4.03
2022-12-22T01:52:30.872Z,4.01
2022-12-22T01:55:20.139Z,4.00
2022-12-22T01:58:05.511Z,4.00
2022-12-22T02:00:51.137Z,4.00
2022-12-22T02:03:38.104Z,3.96
2022-12-22T02:07:00.915Z,3.94
2022-12-22T02:10:07.825Z,3.91
2022-12-22T02:13:10.608Z,3.91
2022-12-22T02:16:07.641Z,3.90
2022-12-22T02:18:58.924Z,3.93
2022-12-22T02:21:45.406Z,3.95
2022-12-22T02:24:54.386Z,3.95
2022-12-22T02:27:39.756Z,3.93
2022-12-22T02:30:26.689Z,3.91
2022-12-22T02:33:12.999Z,3.93
2022-12-22T02:36:18.333Z,3.89
2022-12-22T02:39:17.268Z,3.86
2022-12-22T02:42:15.191Z,3.87
2022-12-22T02:45:06.139Z,3.84
2022-12-22T02:47:56.982Z,3.85
2022-12-22T02:50:51.598Z,3.79
2022-12-22T02:53:38.419Z,3.77
2022-12-22T02:56:26.333Z,3.77
2022-12-22T02:59:12.412Z,3.75
2022-12-22T03:01:59.352Z,3.74
2022-12-22T03:04:44.910Z,3.71
2022-12-22T03:07:30.248Z,3.68
2022-12-22T03:10:15.026Z,3.71
2022-12-22T03:13:00.122Z,3.69
2022-12-22T03:15:45.470Z,3.66
2022-12-22T03:18:31.860Z,3.62
2022-12-22T03:21:17.787Z,3.59
2022-12-22T03:24:02.950Z,3.62
2022-12-22T03:26:30.281Z,3.59
2022-12-22T03:28:56.811Z,3.59
2022-12-22T03:31:23.532Z,3.54
2022-12-22T03:33:50.030Z,3.55
2022-12-22T03:36:16.529Z,3.54
2022-12-22T03:38:43.642Z,3.54
2022-12-22T03:41:30.105Z,3.53
2022-12-22T03:44:15.437Z,3.49
2022-12-22T03:46:41.981Z,3.45
2022-12-22T03:49:11.658Z,3.41
2022-12-22T03:51:40.056Z,3.39
2022-12-22T03:54:07.200Z,3.37
2022-12-22T03:56:34.026Z,3.38
2022-12-22T03:59:00.887Z,3.35
2022-12-22T04:01:27.696Z,3.37
2022-12-22T04:03:54.330Z,3.36
2022-12-22T04:06:21.853Z,3.30
2022-12-22T04:08:48.581Z,3.31
2022-12-22T04:11:35.423Z,3.31
2022-12-22T04:14:02.756Z,3.31
2022-12-22T04:16:29.596Z,3.30
2022-12-22T04:18:56.677Z,3.29
2022-12-22T04:21:23.535Z,3.30
2022-12-22T04:23:53.260Z,3.31
2022-12-22T04:26:22.172Z,3.33
2022-12-22T04:28:49.639Z,3.31
2022-12-22T04:31:16.640Z,3.32
2022-12-22T04:33:43.357Z,3.27
2022-12-22T04:36:10.771Z,3.28
2022-12-22T04:38:37.975Z,3.28
2022-12-22T04:41:05.592Z,3.29
2022-12-22T04:43:32.295Z,3.29
2022-12-22T04:45:58.894Z,3.30
2022-12-22T04:48:27.862Z,3.32
2022-12-22T04:50:56.954Z,3.31
2022-12-22T04:53:24.364Z,3.33
2022-12-22T04:55:55.333Z,3.35
2022-12-22T04:58:22.438Z,3.33
2022-12-22T05:00:49.155Z,3.33
2022-12-22T05:03:15.826Z,3.34
2022-12-22T05:05:42.495Z,3.33
2022-12-22T05:08:09.005Z,3.34
2022-12-22T05:10:35.541Z,3.34
2022-12-22T05:13:02.103Z,3.35
2022-12-22T05:15:33.914Z,3.36
2022-12-22T05:18:01.246Z,3.37
2022-12-22T05:20:29.048Z,3.38
2022-12-22T05:22:55.851Z,3.35
2022-12-22T05:25:22.397Z,3.39
2022-12-22T05:27:51.402Z,3.41
2022-12-22T05:30:19.712Z,3.42
2022-12-22T05:32:46.872Z,3.48
2022-12-22T05:35:13.468Z,3.50
2022-12-22T05:37:40.043Z,3.53
2022-12-22T05:40:07.811Z,3.52
2022-12-22T05:42:36.894Z,3.53
2022-12-22T05:45:07.553Z,3.53
2022-12-22T05:47:34.519Z,3.55
2022-12-22T05:50:00.990Z,3.54
2022-12-22T05:52:27.677Z,3.55
2022-12-22T05:54:54.399Z,3.57
2022-12-22T05:57:20.876Z,3.56
2022-12-22T05:59:47.567Z,3.56
2022-12-22T06:02:14.238Z,3.55
2022-12-22T06:04:41.135Z,3.55
2022-12-22T06:07:07.670Z,3.55
2022-12-22T06:09:34.313Z,3.56
2022-12-22T06:12:00.830Z,3.60
2022-12-22T06:14:27.326Z,3.58
2022-12-22T06:16:53.925Z,3.61
2022-12-22T06:19:20.564Z,3.60
2022-12-22T06:21:47.142Z,3.58
2022-12-22T06:24:13.755Z,3.58
2022-12-22T06:26:40.274Z,3.56
2022-12-22T06:29:06.829Z,3.57
2022-12-22T06:31:33.435Z,3.57
2022-12-22T06:34:00.033Z,3.59
2022-12-22T06:36:28.885Z,3.59
2022-12-22T06:38:55.398Z,3.60
2022-12-22T06:41:40.383Z,3.61
2022-12-22T06:44:07.116Z,3.62
2022-12-22T06:46:33.694Z,3.63
2022-12-22T06:49:00.199Z,3.65
2022-12-22T06:51:26.761Z,3.66
2022-12-22T06:53:53.260Z,3.67
2022-12-22T06:56:19.734Z,3.69
2022-12-22T06:58:46.368Z,3.70
2022-12-22T07:01:12.956Z,3.72
2022-12-22T07:03:39.557Z,3.75
2022-12-22T07:06:06.353Z,3.76
2022-12-22T07:08:32.909Z,3.79
2022-12-22T07:10:59.541Z,3.81
2022-12-22T07:13:32.718Z,3.82
2022-12-22T07:16:01.447Z,3.85
2022-12-22T07:18:33.120Z,3.85
2022-12-22T07:21:02.146Z,3.88
2022-12-22T07:23:29.893Z,3.93
2022-12-22T07:25:56.569Z,3.96
2022-12-22T07:28:23.198Z,3.95
2022-12-22T07:30:50.894Z,3.98
2022-12-22T07:33:17.537Z,3.99
2022-12-22T07:35:44.226Z,3.99
2022-12-22T07:38:10.802Z,4.00
2022-12-22T07:40:41.853Z,4.04
2022-12-22T07:43:09.154Z,4.07
2022-12-22T07:45:36.476Z,4.09
2022-12-22T07:48:26.826Z,4.11
2022-12-22T07:50:54.739Z,4.15
2022-12-22T07:53:21.249Z,4.18
2022-12-22T07:55:47.751Z,4.21
2022-12-22T07:58:14.296Z,4.23
2022-12-22T08:00:40.767Z,4.26
2022-12-22T08:03:07.378Z,4.29
2022-12-22T08:05:33.993Z,4.31
2022-12-22T08:08:00.573Z,4.34
2022-12-22T08:10:27.227Z,4.39
2022-12-22T08:12:53.869Z,4.39
2022-12-22T08:15:20.721Z,4.42
2022-12-22T08:17:47.222Z,4.46
2022-12-22T08:20:13.762Z,4.48
2022-12-22T08:22:40.291Z,4.51
2022-12-22T08:25:07.106Z,4.53
2022-12-22T08:27:40.430Z,4.54
2022-12-22T08:30:08.592Z,4.58
2022-12-22T08:32:37.398Z,4.61
2022-12-22T08:35:05.891Z,4.64
2022-12-22T08:37:41.185Z,4.66
2022-12-22T08:40:12.763Z,4.69
2022-12-22T08:42:40.412Z,4.71
2022-12-22T08:45:09.289Z,4.75
2022-12-22T08:47:35.931Z,4.78
2022-12-22T08:50:03.281Z,4.79
2022-12-22T08:52:30.561Z,4.81
2022-12-22T08:54:57.059Z,4.84
2022-12-22T08:57:23.560Z,4.86
2022-12-22T08:59:50.082Z,4.89
2022-12-22T09:02:16.688Z,4.91
2022-12-22T09:04:43.240Z,4.92
2022-12-22T09:07:09.968Z,4.94
2022-12-22T09:09:36.489Z,4.96
2022-12-22T09:12:04.120Z,5.00
2022-12-22T09:14:31.157Z,5.01
2022-12-22T09:16:57.987Z,5.03
2022-12-22T09:19:24.864Z,5.05
2022-12-22T09:21:51.509Z,5.06
2022-12-22T09:24:18.116Z,5.08
2022-12-22T09:26:44.751Z,5.09
2022-12-22T09:29:12.171Z,5.12
2022-12-22T09:31:41.615Z,5.14
2022-12-22T09:34:11.990Z,5.18
2022-12-22T09:36:43.614Z,5.20
2022-12-22T09:39:10.976Z,5.22
2022-12-22T09:41:52.289Z,5.21
2022-12-22T09:44:21.557Z,5.26
2022-12-22T09:46:48.842Z,5.26
2022-12-22T09:49:18.502Z,5.28
2022-12-22T09:51:50.782Z,5.31
2022-12-22T09:54:17.534Z,5.32
2022-12-22T09:56:44.133Z,5.34
2022-12-22T09:59:13.284Z,5.37
2022-12-22T10:01:58.452Z,5.39
2022-12-22T10:04:47.162Z,5.41
2022-12-22T10:07:31.225Z,5.43
2022-12-22T10:10:04.589Z,5.45
2022-12-22T10:12:31.170Z,5.49
2022-12-22T10:14:57.734Z,5.51
2022-12-22T10:17:34.540Z,5.52
2022-12-22T10:20:25.474Z,5.56
2022-12-22T10:22:55.871Z,5.57
2022-12-22T10:25:27.831Z,5.61
2022-12-22T10:28:02.283Z,5.60
2022-12-22T10:30:35.615Z,5.64
2022-12-22T10:33:13.884Z,5.66
2022-12-22T10:35:53.513Z,5.68
2022-12-22T10:38:30.495Z,5.70
2022-12-22T10:41:02.189Z,5.72
2022-12-22T10:43:37.596Z,5.74
2022-12-22T10:46:05.303Z,5.81
2022-12-22T10:48:38.903Z,5.83
2022-12-22T10:51:11.794Z,5.85
2022-12-22T10:53:52.454Z,5.89
2022-12-22T10:56:28.774Z,5.92
2022-12-22T10:58:56.595Z,5.96
2022-12-22T11:01:30.066Z,6.01
2022-12-22T11:03:58.653Z,6.04
2022-12-22T11:06:25.327Z,6.08
2022-12-22T11:08:52.175Z,6.10
2022-12-22T11:11:39.287Z,6.14
2022-12-22T11:14:34.747Z,6.17
2022-12-22T11:17:36.537Z,6.23
2022-12-22T11:20:21.362Z,6.26
2022-12-22T11:23:06.277Z,6.29
2022-12-22T11:25:44.744Z,6.34
2022-12-22T11:28:26.212Z,6.37
2022-12-22T11:30:58.705Z,6.40
2022-12-22T11:33:47.936Z,6.42
2022-12-22T11:36:26.425Z,6.48
2022-12-22T11:39:07.141Z,6.50
2022-12-22T11:42:06.016Z,6.55
2022-12-22T11:44:49.995Z,6.59
2022-12-22T11:47:41.379Z,6.63
2022-12-22T11:51:00.345Z,6.68
2022-12-22T11:53:57.774Z,6.73
2022-12-22T11:56:33.379Z,6.75
2022-12-22T11:59:05.933Z,6.80
2022-12-22T12:01:47.715Z,6.84
2022-12-22T12:04:36.401Z,6.87
2022-12-22T12:07:05.662Z,6.89
2022-12-22T12:10:09.772Z,6.92
2022-12-22T12:12:57.557Z,6.96
2022-12-22T12:15:34.805Z,6.99
2022-12-22T12:18:37.694Z,7.02
2022-12-22T12:21:10.463Z,7.04
2022-12-22T12:23:58.091Z,7.06
2022-12-22T12:26:41.964Z,7.09
2022-12-22T12:29:28.631Z,7.11
2022-12-22T12:32:11.915Z,7.14
2022-12-22T12:34:44.123Z,7.15
2022-12-22T12:37:25.921Z,7.20
2022-12-22T12:40:02.294Z,7.22
2022-12-22T12:42:39.169Z,7.24
2022-12-22T12:45:36.887Z,7.27
2022-12-22T12:48:24.485Z,7.29
2022-12-22T12:50:53.749Z,7.32
2022-12-22T12:53:26.875Z,7.32
2022-12-22T12:55:59.093Z,7.35
2022-12-22T12:58:40.577Z,7.39
2022-12-22T13:01:19.545Z,7.41
2022-12-22T13:04:03.071Z,7.42
2022-12-22T13:06:49.075Z,7.45
2022-12-22T13:12:39.623Z,7.48
2022-12-22T13:15:33.588Z,7.50
2022-12-22T13:18:03.044Z,7.51
2022-12-22T13:20:35.507Z,7.52
2022-12-22T13:23:10.480Z,7.53
2022-12-22T13:25:53.163Z,7.56
2022-12-22T13:28:21.501Z,7.58
2022-12-22T13:30:50.340Z,7.59
2022-12-22T13:33:21.043Z,7.61
2022-12-22T13:35:53.382Z,7.63
2022-12-22T13:38:35.250Z,7.64
2022-12-22T13:41:22.911Z,7.66
2022-12-22T13:43:57.112Z,7.68
2022-12-22T13:46:24.692Z,7.69
2022-12-22T13:48:54.354Z,7.69
2022-12-22T13:51:24.866Z,7.72
2022-12-22T13:54:09.278Z,7.73
2022-12-22T13:56:51.459Z,7.74
2022-12-22T13:59:42.556Z,7.76
2022-12-22T14:02:09.168Z,7.78
2022-12-22T14:04:37.880Z,7.78
2022-12-22T14:07:19.222Z,7.83
2022-12-22T14:09:50.473Z,7.85
2022-12-22T14:12:21.348Z,7.86
2022-12-22T14:14:51.209Z,7.87
2022-12-22T14:17:44.617Z,7.90
2022-12-22T14:20:19.130Z,7.91
2022-12-22T14:22:51.282Z,7.93
2022-12-22T14:25:25.082Z,7.93
2022-12-22T14:27:56.639Z,7.95
2022-12-22T14:30:38.543Z,7.96
2022-12-22T14:33:32.728Z,7.98
2022-12-22T14:36:20.655Z,7.97
2022-12-22T14:38:51.864Z,7.96
2022-12-22T14:41:41.359Z,7.98
2022-12-22T14:44:18.235Z,8.00
2022-12-22T14:46:47.466Z,8.01
2022-12-22T14:49:20.019Z,8.01
2022-12-22T14:52:01.369Z,8.02
2022-12-22T14:54:28.382Z,8.03
2022-12-22T14:57:02.430Z,8.04
2022-12-22T14:59:29.333Z,8.03
2022-12-22T15:02:01.761Z,8.05
2022-12-22T15:04:29.679Z,8.07
2022-12-22T15:07:45.641Z,8.09
2022-12-22T15:10:17.978Z,8.09
2022-12-22T15:12:46.546Z,8.09
2022-12-22T15:15:16.489Z,8.10
2022-12-22T15:17:46.239Z,8.10
2022-12-22T15:20:19.297Z,8.11
2022-12-22T15:22:45.965Z,8.13
2022-12-22T15:25:17.778Z,8.14
2022-12-22T15:27:44.461Z,8.14
2022-12-22T15:30:13.754Z,8.13
2022-12-22T15:32:41.459Z,8.15
2022-12-22T15:35:32.956Z,8.15
2022-12-22T15:38:00.226Z,8.15
2022-12-22T15:40:28.725Z,8.15
2022-12-22T15:42:55.285Z,8.15
2022-12-22T15:45:22.402Z,8.16
2022-12-22T15:47:54.092Z,8.16
2022-12-22T15:50:25.628Z,8.15
2022-12-22T15:52:54.957Z,8.14
2022-12-22T15:55:22.085Z,8.15
2022-12-22T15:57:51.698Z,8.14
2022-12-22T16:00:19.820Z,8.15
2022-12-22T16:02:46.624Z,8.14
2022-12-22T16:05:14.212Z,8.14
2022-12-22T16:07:42.376Z,8.13
2022-12-22T16:10:20.905Z,8.12
2022-12-22T16:12:53.912Z,8.13
2022-12-22T16:15:22.205Z,8.13
2022-12-22T16:17:51.662Z,8.11
2022-12-22T16:20:18.345Z,8.12
2022-12-22T16:22:45.196Z,8.10
2022-12-22T16:25:18.538Z,8.10
2022-12-22T16:27:47.863Z,8.10
2022-12-22T16:30:19.408Z,8.09
2022-12-22T16:32:46.158Z,8.09
2022-12-22T16:35:17.397Z,8.09
2022-12-22T16:37:44.635Z,8.08
2022-12-22T16:40:12.434Z,8.09
2022-12-22T16:45:28.840Z,8.07
2022-12-22T16:47:59.299Z,8.07
2022-12-22T16:50:32.933Z,8.06
2022-12-22T16:53:04.882Z,8.07
2022-12-22T16:55:33.450Z,8.07
2022-12-22T16:57:59.994Z,8.06
2022-12-22T17:00:31.003Z,8.06
2022-12-22T17:03:06.613Z,8.05
2022-12-22T17:05:44.464Z,8.05
2022-12-22T17:08:20.352Z,8.05
2022-12-22T17:10:47.457Z,8.06
2022-12-22T17:13:14.323Z,8.05
2022-12-22T17:15:41.009Z,8.05
2022-12-22T17:18:18.709Z,8.04
2022-12-22T17:20:55.161Z,8.03
2022-12-22T17:23:30.475Z,8.03
2022-12-22T17:25:59.251Z,8.02
2022-12-22T17:28:26.760Z,8.03
2022-12-22T17:30:53.507Z,8.02
2022-12-22T17:33:20.259Z,8.02
2022-12-22T17:35:47.605Z,8.03
2022-12-22T17:38:19.186Z,8.01
2022-12-22T17:40:48.133Z,8.01
2022-12-22T17:43:16.901Z,8.01
2022-12-22T17:45:50.190Z,8.00
2022-12-22T17:48:16.876Z,7.99
2022-12-22T17:50:50.344Z,8.00
2022-12-22T17:53:20.984Z,8.01
2022-12-22T17:58:35.227Z,8.01
2022-12-22T18:01:01.832Z,8.00
2022-12-22T18:03:28.433Z,8.00
2022-12-22T18:05:55.507Z,8.01
2022-12-22T18:08:22.342Z,7.99
2022-12-22T18:10:49.660Z,7.98
2022-12-22T18:13:20.480Z,7.97
2022-12-22T18:15:47.543Z,7.97
2022-12-22T18:18:17.338Z,7.96
2022-12-22T18:20:46.945Z,7.97
2022-12-22T18:23:34.077Z,7.98
2022-12-22T18:26:00.992Z,7.96
2022-12-22T18:28:27.551Z,7.95
2022-12-22T18:30:54.136Z,7.94
2022-12-22T18:33:21.852Z,7.93
2022-12-22T18:35:49.230Z,7.91
2022-12-22T18:38:28.406Z,7.91
2022-12-22T18:40:55.399Z,7.90
2022-12-22T18:43:22.167Z,7.91
2022-12-22T18:45:48.747Z,7.91
2022-12-22T18:48:15.658Z,7.89
2022-12-22T18:50:42.615Z,7.88
2022-12-22T18:53:30.655Z,7.86
2022-12-22T18:55:58.233Z,7.87
2022-12-22T18:58:25.955Z,7.86
2022-12-22T19:00:54.982Z,7.85
2022-12-22T19:03:29.081Z,7.86
2022-12-22T19:05:56.481Z,7.83
2022-12-22T19:08:25.747Z,7.81
2022-12-22T19:11:00.754Z,7.83
2022-12-22T19:13:32.171Z,7.81
2022-12-22T19:15:58.783Z,7.81
2022-12-22T19:18:27.526Z,7.81
2022-12-22T19:20:57.485Z,7.80
2022-12-22T19:23:25.678Z,7.80
2022-12-22T19:25:55.450Z,7.80
2022-12-22T19:28:32.105Z,7.78
2022-12-22T19:30:59.744Z,7.76
2022-12-22T19:33:35.546Z,7.74
2022-12-22T19:36:03.190Z,7.75
2022-12-22T19:38:30.754Z,7.76
2022-12-22T19:41:01.007Z,7.76
2022-12-22T19:43:28.847Z,7.75
2022-12-22T19:45:55.756Z,7.74
2022-12-22T19:48:25.943Z,7.74
2022-12-22T19:50:53.816Z,7.73
2022-12-22T19:53:21.376Z,7.73
2022-12-22T19:55:53.185Z,7.73
2022-12-22T19:58:24.799Z,7.72
2022-12-22T20:00:52.108Z,7.73
2022-12-22T20:03:24.037Z,7.72
2022-12-22T20:05:51.040Z,7.71
2022-12-22T20:08:18.001Z,7.71
2022-12-22T20:10:45.306Z,7.70
2022-12-22T20:13:15.699Z,7.71
2022-12-22T20:15:42.803Z,7.70
2022-12-22T20:18:30.476Z,7.71
2022-12-22T20:21:05.700Z,7.69
2022-12-22T20:23:35.894Z,7.68
2022-12-22T20:26:05.915Z,7.69
2022-12-22T20:28:38.338Z,7.70
2022-12-22T20:31:07.192Z,7.68
2022-12-22T20:33:35.021Z,7.67
2022-12-22T20:36:02.791Z,7.66
2022-12-22T20:38:37.629Z,7.66
2022-12-22T20:41:06.412Z,7.68
2022-12-22T20:43:34.097Z,7.64
2022-12-22T20:46:28.381Z,7.64
2022-12-22T20:49:00.984Z,7.63
2022-12-22T20:51:30.074Z,7.64
2022-12-22T20:53:57.422Z,7.63
2022-12-22T20:56:31.837Z,7.62
2022-12-22T20:59:00.446Z,7.63
2022-12-22T21:01:27.159Z,7.63
2022-12-22T21:03:54.330Z,7.62
2022-12-22T21:06:25.702Z,7.60
2022-12-22T21:08:53.133Z,7.60
2022-12-22T21:11:19.754Z,7.58
2022-12-22T21:13:46.287Z,7.59
2022-12-22T21:16:16.311Z,7.58
2022-12-22T21:18:43.246Z,7.58
2022-12-22T21:21:11.356Z,7.57
2022-12-22T21:23:38.436Z,7.59
2022-12-22T21:26:10.852Z,7.57
2022-12-22T21:28:38.646Z,7.57
2022-12-22T21:31:05.523Z,7.55
2022-12-22T21:33:32.169Z,7.55
2022-12-22T21:36:00.115Z,7.52
2022-12-22T21:38:29.952Z,7.51
2022-12-22T21:40:56.530Z,7.48
2022-12-22T21:43:23.040Z,7.46
2022-12-22T21:45:49.910Z,7.39
2022-12-22T21:48:19.011Z,7.33
2022-12-22T21:50:47.624Z,7.25
2022-12-22T21:53:19.821Z,7.21
2022-12-22T21:55:49.096Z,7.14
2022-12-22T21:58:15.749Z,7.09
2022-12-22T22:00:48.204Z,7.00
2022-12-22T22:03:16.039Z,6.93
2022-12-22T22:05:43.056Z,6.90
2022-12-22T22:08:11.933Z,6.81
2022-12-22T22:10:41.499Z,6.77
2022-12-22T22:13:12.557Z,6.71
2022-12-22T22:15:39.208Z,6.67
2022-12-22T22:18:07.437Z,6.58
2022-12-22T22:20:34.642Z,6.55
2022-12-22T22:23:01.565Z,6.45
2022-12-22T22:25:28.225Z,6.41
2022-12-22T22:27:59.401Z,6.38
2022-12-22T22:30:26.867Z,6.33
2022-12-22T22:32:54.884Z,6.35
2022-12-22T22:35:23.145Z,6.33
2022-12-22T22:37:53.111Z,6.29
2022-12-22T22:40:22.551Z,6.29
2022-12-22T22:42:49.456Z,6.28
2022-12-22T22:45:23.327Z,6.25
2022-12-22T22:47:51.614Z,6.26
2022-12-22T22:50:19.484Z,6.31
2022-12-22T22:52:46.520Z,6.27
2022-12-22T22:55:14.361Z,6.28
2022-12-22T22:57:41.828Z,6.29
2022-12-22T23:00:11.778Z,6.28
2022-12-22T23:02:38.501Z,6.27
2022-12-22T23:05:05.709Z,6.29
2022-12-22T23:07:32.268Z,6.32
2022-12-22T23:09:58.809Z,6.29
2022-12-22T23:12:25.518Z,6.28
2022-12-22T23:14:52.175Z,6.28
2022-12-22T23:17:18.873Z,6.27
2022-12-22T23:19:45.356Z,6.22
2022-12-22T23:22:11.932Z,6.24
2022-12-22T23:24:38.429Z,6.24
2022-12-22T23:27:05.019Z,6.24
2022-12-22T23:29:31.811Z,6.25
2022-12-22T23:31:58.393Z,6.26
2022-12-22T23:34:25.081Z,6.27
2022-12-22T23:36:51.862Z,6.27
2022-12-22T23:39:18.395Z,6.28
2022-12-22T23:41:44.938Z,6.30
2022-12-22T23:44:11.509Z,6.28
2022-12-22T23:46:38.139Z,6.29
2022-12-22T23:49:04.757Z,6.29
2022-12-22T23:51:31.466Z,6.28
2022-12-22T23:53:59.627Z,6.29
2022-12-22T23:56:26.243Z,6.29
2022-12-22T23:58:55.204Z,6.31
